Time;durP1;ratioP1;P1;durP2;ratioP2;P2;SDS_P1;SDS_P2;PMS_P1;PMS_P2;Temp;Humidity;BMP_temperature;BMP_pressure;BME280_temperature;BME280_humidity;BME280_pressure;Samples;Min_cycle;Max_cycle;Signal;HPM_P1;HPM_P2
2024/01/21 00:00:28;;;;;;;14.48;6.18;;;0.60;29.60;;;;;;5050436;28;20389;-73
2024/01/21 00:02:54;;;;;;;10.40;5.85;;;0.70;30.30;;;;;;5050443;28;20440;-72
2024/01/21 00:05:19;;;;;;;11.13;5.90;;;0.70;29.10;;;;;;5050584;28;20433;-71
2024/01/21 00:07:45;;;;;;;12.57;6.47;;;0.80;30.00;;;;;;5050387;28;20426;-70
2024/01/21 00:10:11;;;;;;;9.17;5.60;;;0.80;30.50;;;;;;5050332;28;20377;-71
2024/01/21 00:12:38;;;;;;;10.90;6.30;;;0.90;29.20;;;;;;5050293;28;20378;-71
2024/01/21 00:15:04;;;;;;;11.85;5.95;;;0.90;29.90;;;;;;5050696;28;20816;-73
2024/01/21 00:17:30;;;;;;;10.52;5.80;;;1.00;28.30;;;;;;5050295;28;20381;-72
2024/01/21 00:19:56;;;;;;;12.00;6.15;;;0.90;27.80;;;;;;5050511;28;20390;-72
2024/01/21 00:22:22;;;;;;;10.90;6.53;;;1.00;29.00;;;;;;5050780;28;20381;-71
2024/01/21 00:24:47;;;;;;;11.80;6.10;;;0.90;28.80;;;;;;5053449;28;20405;-72
2024/01/21 00:27:13;;;;;;;12.47;6.70;;;0.90;27.40;;;;;;5054484;28;20394;-71
2024/01/21 00:29:39;;;;;;;13.90;6.43;;;0.90;27.60;;;;;;5053927;28;20383;-72
2024/01/21 00:32:04;;;;;;;9.18;5.50;;;0.90;28.80;;;;;;5054072;28;20385;-71
2024/01/21 00:34:30;;;;;;;9.30;5.70;;;1.00;28.40;;;;;;5054213;28;20399;-72
2024/01/21 00:36:55;;;;;;;10.97;6.20;;;1.00;28.40;;;;;;5054126;28;20397;-73
2024/01/21 00:39:21;;;;;;;11.23;5.90;;;1.10;28.30;;;;;;5053721;28;20400;-72
2024/01/21 00:41:46;;;;;;;13.07;6.60;;;1.10;28.30;;;;;;5053712;28;20458;-72
2024/01/21 00:44:12;;;;;;;12.37;6.43;;;1.10;28.70;;;;;;5053571;28;20408;-72
2024/01/21 00:46:38;;;;;;;10.63;6.27;;;1.10;28.50;;;;;;5053791;28;20389;-72
2024/01/21 00:49:04;;;;;;;12.88;6.90;;;1.10;28.10;;;;;;5053786;28;20415;-71
2024/01/21 00:51:30;;;;;;;14.98;7.10;;;1.00;28.20;;;;;;5053830;28;20409;-71
2024/01/21 00:53:55;;;;;;;12.10;7.30;;;1.10;29.10;;;;;;5053520;28;20876;-71
2024/01/21 00:56:21;;;;;;;11.20;6.23;;;1.00;29.20;;;;;;5053690;28;20378;-71
2024/01/21 00:58:47;;;;;;;15.63;7.30;;;1.00;28.90;;;;;;5053698;28;20383;-70
2024/01/21 01:01:12;;;;;;;12.02;7.15;;;0.90;30.00;;;;;;5053442;28;20397;-72
2024/01/21 01:03:38;;;;;;;12.10;7.15;;;0.90;29.40;;;;;;5053461;28;20385;-71
2024/01/21 01:06:04;;;;;;;14.03;7.00;;;0.90;31.40;;;;;;5053627;28;20412;-71
2024/01/21 01:08:30;;;;;;;18.13;8.27;;;0.90;29.70;;;;;;5053576;28;20424;-71
2024/01/21 01:10:56;;;;;;;14.53;7.90;;;0.90;29.70;;;;;;5053538;28;20473;-72
2024/01/21 01:13:21;;;;;;;15.88;7.80;;;0.90;30.20;;;;;;5053649;28;20386;-72
2024/01/21 01:15:47;;;;;;;15.10;8.00;;;1.00;29.70;;;;;;5053665;28;20394;-71
2024/01/21 01:18:14;;;;;;;14.52;7.90;;;1.00;29.60;;;;;;5053615;28;20427;-71
2024/01/21 01:20:40;;;;;;;14.10;8.15;;;1.00;28.40;;;;;;5052667;28;20389;-71
2024/01/21 01:23:05;;;;;;;13.90;8.05;;;1.00;29.20;;;;;;5054474;28;20436;-71
2024/01/21 01:25:31;;;;;;;15.07;8.40;;;1.00;29.70;;;;;;5056351;28;20436;-71
2024/01/21 01:27:57;;;;;;;18.65;9.50;;;1.00;30.20;;;;;;5056377;28;20390;-71
2024/01/21 01:30:22;;;;;;;15.48;8.60;;;1.00;30.50;;;;;;5054405;28;20385;-72
2024/01/21 01:32:48;;;;;;;13.73;8.67;;;1.00;30.30;;;;;;5056601;28;20381;-72
2024/01/21 01:35:13;;;;;;;18.00;8.70;;;1.00;29.80;;;;;;5055878;28;20459;-72
2024/01/21 01:37:39;;;;;;;17.55;9.52;;;1.00;30.90;;;;;;5056814;28;20385;-71
2024/01/21 01:40:06;;;;;;;16.40;9.07;;;1.00;30.00;;;;;;5054058;28;20386;-71
2024/01/21 01:42:32;;;;;;;16.30;9.23;;;1.00;29.30;;;;;;5052972;28;20394;-72
2024/01/21 01:44:58;;;;;;;16.20;9.00;;;1.00;29.60;;;;;;5052788;28;20408;-72
2024/01/21 01:47:24;;;;;;;18.85;8.63;;;1.10;30.40;;;;;;5053156;28;20401;-73
2024/01/21 01:49:50;;;;;;;15.85;9.35;;;1.10;30.00;;;;;;5052609;28;20381;-72
2024/01/21 01:52:17;;;;;;;17.80;10.05;;;1.10;30.00;;;;;;5052573;28;20389;-72
2024/01/21 01:54:46;;;;;;;15.23;9.20;;;1.00;30.50;;;;;;5052779;28;20397;-72
2024/01/21 01:57:15;;;;;;;15.73;9.47;;;1.10;29.80;;;;;;5052808;28;20411;-72
2024/01/21 01:59:41;;;;;;;18.15;9.40;;;1.10;30.70;;;;;;5052286;28;20389;-71
2024/01/21 02:02:07;;;;;;;18.33;9.60;;;1.20;30.70;;;;;;5052105;28;20404;-71
2024/01/21 02:04:33;;;;;;;16.92;9.68;;;1.30;30.70;;;;;;5052168;28;20876;-72
2024/01/21 02:06:59;;;;;;;18.40;10.20;;;1.40;32.20;;;;;;5052197;28;20925;-71
2024/01/21 02:09:24;;;;;;;17.17;9.35;;;1.40;29.40;;;;;;5051847;28;20385;-72
2024/01/21 02:11:50;;;;;;;19.20;9.80;;;1.40;29.00;;;;;;5034177;28;20456;-72
2024/01/21 02:14:16;;;;;;;18.70;9.90;;;1.40;30.00;;;;;;5052007;28;20798;-72
2024/01/21 02:16:42;;;;;;;18.45;10.00;;;1.40;29.60;;;;;;5052417;28;20389;-71
2024/01/21 02:19:19;;;;;;;21.93;10.20;;;1.40;28.90;;;;;;5051817;28;20435;-71
2024/01/21 02:21:45;;;;;;;18.67;10.17;;;1.40;29.40;;;;;;5034011;28;20463;-71
2024/01/21 02:24:10;;;;;;;17.13;9.73;;;1.50;29.60;;;;;;5051334;28;20377;-73
2024/01/21 02:26:36;;;;;;;15.18;9.52;;;1.40;29.30;;;;;;5052053;28;20436;-71
2024/01/21 02:29:01;;;;;;;22.75;10.95;;;1.50;28.60;;;;;;5051643;28;20392;-71
2024/01/21 02:31:27;;;;;;;19.57;10.73;;;1.60;29.30;;;;;;5051490;28;20866;-71
2024/01/21 02:33:53;;;;;;;17.57;10.10;;;1.50;28.60;;;;;;5051648;28;20385;-71
2024/01/21 02:36:18;;;;;;;20.23;10.93;;;1.60;29.80;;;;;;5051667;28;20464;-71
2024/01/21 02:38:44;;;;;;;20.70;10.80;;;1.60;29.50;;;;;;5052877;28;20393;-71
2024/01/21 02:41:09;;;;;;;17.83;10.73;;;1.50;29.00;;;;;;5053035;28;20390;-71
2024/01/21 02:43:35;;;;;;;18.15;10.38;;;1.50;30.50;;;;;;5053500;28;20392;-71
2024/01/21 02:46:00;;;;;;;19.30;10.70;;;1.60;28.90;;;;;;5053098;28;20401;-71
2024/01/21 02:48:26;;;;;;;18.07;10.40;;;1.50;29.00;;;;;;5052529;28;20427;-71
2024/01/21 02:50:51;;;;;;;19.93;10.50;;;1.50;29.10;;;;;;5052834;28;20943;-72
2024/01/21 02:53:17;;;;;;;17.37;10.33;;;1.50;29.70;;;;;;5052963;28;20392;-72
2024/01/21 02:55:43;;;;;;;21.30;10.20;;;1.50;30.40;;;;;;5052100;28;20386;-71
2024/01/21 02:58:08;;;;;;;18.17;10.25;;;1.40;28.70;;;;;;5051072;28;20389;-72
2024/01/21 03:00:34;;;;;;;18.52;10.80;;;1.40;29.10;;;;;;5053677;28;20907;-72
2024/01/21 03:02:59;;;;;;;18.93;10.33;;;1.40;29.30;;;;;;5058153;28;20381;-70
2024/01/21 03:05:25;;;;;;;17.63;9.33;;;1.30;29.10;;;;;;5054242;28;20458;-70
2024/01/21 03:07:51;;;;;;;22.20;10.70;;;1.30;28.40;;;;;;5052314;28;20390;-71
2024/01/21 03:10:16;;;;;;;18.55;10.25;;;1.30;29.30;;;;;;5051553;28;20385;-71
2024/01/21 03:12:42;;;;;;;18.92;10.68;;;1.30;29.30;;;;;;5050918;28;20382;-70
2024/01/21 03:15:08;;;;;;;18.83;11.18;;;1.20;28.80;;;;;;5050847;28;20705;-71
2024/01/21 03:17:33;;;;;;;19.37;10.00;;;1.30;29.50;;;;;;5051270;28;20415;-71
2024/01/21 03:19:59;;;;;;;17.23;10.30;;;1.20;30.30;;;;;;5050590;28;20389;-71
2024/01/21 03:22:24;;;;;;;17.90;9.70;;;1.20;30.70;;;;;;5050874;28;20482;-71
2024/01/21 03:24:51;;;;;;;18.25;10.35;;;1.20;29.60;;;;;;5051250;28;20452;-71
2024/01/21 03:27:16;;;;;;;21.80;11.00;;;1.20;30.10;;;;;;5050983;28;20481;-70
2024/01/21 03:29:42;;;;;;;18.77;9.80;;;1.20;29.90;;;;;;5050733;28;20409;-70
2024/01/21 03:32:07;;;;;;;16.83;9.75;;;1.30;29.30;;;;;;5050821;28;20515;-70
2024/01/21 03:34:33;;;;;;;17.60;9.90;;;1.30;29.90;;;;;;5050629;28;20427;-70
2024/01/21 03:36:58;;;;;;;17.33;9.43;;;1.30;28.90;;;;;;5050804;28;20389;-70
2024/01/21 03:39:24;;;;;;;15.90;9.70;;;1.20;29.20;;;;;;5050887;28;20388;-71
2024/01/21 03:41:49;;;;;;;16.40;9.07;;;1.20;29.50;;;;;;5050907;28;20421;-70
2024/01/21 03:44:15;;;;;;;18.67;9.68;;;1.20;29.40;;;;;;5050367;28;20401;-70
2024/01/21 03:46:40;;;;;;;19.10;9.73;;;1.30;29.60;;;;;;5050885;28;20393;-70
2024/01/21 03:49:06;;;;;;;16.75;9.65;;;1.30;30.00;;;;;;5050574;28;20381;-70
2024/01/21 03:51:31;;;;;;;17.77;9.77;;;1.30;29.80;;;;;;5050822;28;20381;-71
2024/01/21 03:53:57;;;;;;;16.37;9.23;;;1.20;28.60;;;;;;5050594;28;20955;-71
2024/01/21 03:56:23;;;;;;;19.40;9.50;;;1.30;29.90;;;;;;5050927;28;20721;-71
2024/01/21 03:58:48;;;;;;;16.15;9.07;;;1.30;28.70;;;;;;5052361;28;20868;-72
2024/01/21 04:01:14;;;;;;;19.40;10.65;;;1.20;29.20;;;;;;5054450;28;20381;-70
2024/01/21 04:03:39;;;;;;;17.65;9.65;;;1.30;28.50;;;;;;5036329;28;20403;-70
2024/01/21 04:06:05;;;;;;;17.53;10.00;;;1.30;28.30;;;;;;5054423;28;20911;-71
2024/01/21 04:08:30;;;;;;;15.30;8.80;;;1.30;29.10;;;;;;5054735;28;20393;-71
2024/01/21 04:10:56;;;;;;;18.00;9.53;;;1.40;27.40;;;;;;5054735;28;20933;-71
2024/01/21 04:13:22;;;;;;;17.37;9.00;;;1.50;29.20;;;;;;5054112;28;20384;-71
2024/01/21 04:15:47;;;;;;;17.42;8.70;;;1.50;28.60;;;;;;5036291;28;20393;-71
2024/01/21 04:18:13;;;;;;;16.27;9.18;;;1.50;27.20;;;;;;5054002;28;20381;-71
2024/01/21 04:20:38;;;;;;;16.08;8.68;;;1.50;28.80;;;;;;5054035;28;20385;-71
2024/01/21 04:23:04;;;;;;;17.00;9.07;;;1.50;27.60;;;;;;5054152;28;20389;-71
2024/01/21 04:25:29;;;;;;;14.37;8.50;;;1.60;27.70;;;;;;5054415;28;20397;-71
2024/01/21 04:27:55;;;;;;;15.20;8.67;;;1.70;27.10;;;;;;5053987;28;20393;-70
2024/01/21 04:30:21;;;;;;;14.40;8.20;;;1.70;26.80;;;;;;5053835;28;20382;-70
2024/01/21 04:32:47;;;;;;;11.80;7.70;;;1.70;26.80;;;;;;5053914;28;20385;-70
2024/01/21 04:35:13;;;;;;;12.68;7.43;;;1.60;26.90;;;;;;5053656;28;20891;-71
2024/01/21 04:37:38;;;;;;;14.00;7.90;;;1.70;27.10;;;;;;5036268;28;20420;-72
2024/01/21 04:40:05;;;;;;;13.63;8.20;;;1.70;25.90;;;;;;5035647;28;20807;-71
2024/01/21 04:42:30;;;;;;;14.18;7.68;;;1.80;25.60;;;;;;5053688;28;20442;-71
2024/01/21 04:44:56;;;;;;;14.17;8.20;;;1.80;26.60;;;;;;5053725;28;20883;-71
2024/01/21 04:47:21;;;;;;;15.03;7.57;;;1.80;25.30;;;;;;5053551;28;20396;-70
2024/01/21 04:49:47;;;;;;;14.13;7.37;;;2.00;25.80;;;;;;5053356;28;20369;-71
2024/01/21 04:52:12;;;;;;;12.73;7.40;;;1.90;25.30;;;;;;5053353;28;20385;-71
2024/01/21 04:54:38;;;;;;;13.00;7.37;;;2.00;25.10;;;;;;5053448;28;20421;-71
2024/01/21 04:57:04;;;;;;;12.20;7.20;;;2.00;25.60;;;;;;5053978;28;20421;-71
2024/01/21 04:59:29;;;;;;;16.13;8.55;;;2.10;24.70;;;;;;5053505;28;20760;-71
2024/01/21 05:01:55;;;;;;;12.67;7.50;;;2.10;24.70;;;;;;5053364;28;20404;-71
2024/01/21 05:04:20;;;;;;;11.90;7.53;;;2.00;25.20;;;;;;5053231;28;20397;-71
2024/01/21 05:06:46;;;;;;;12.87;7.70;;;2.00;25.50;;;;;;5054295;28;20385;-71
2024/01/21 05:09:11;;;;;;;14.23;8.00;;;2.10;24.60;;;;;;5052886;28;20386;-71
2024/01/21 05:11:37;;;;;;;13.18;7.70;;;2.00;26.70;;;;;;5052320;28;20461;-71
2024/01/21 05:14:03;;;;;;;12.82;7.65;;;2.10;25.40;;;;;;5052966;28;20390;-71
2024/01/21 05:16:29;;;;;;;11.98;7.55;;;2.00;24.70;;;;;;5052989;28;20454;-71
2024/01/21 05:18:54;;;;;;;13.07;7.45;;;2.00;24.90;;;;;;5052927;28;20388;-71
2024/01/21 05:21:21;;;;;;;14.05;7.85;;;2.00;25.40;;;;;;5052869;28;20393;-71
2024/01/21 05:23:48;;;;;;;14.20;7.70;;;2.00;27.10;;;;;;5052912;28;20378;-71
2024/01/21 05:26:14;;;;;;;14.47;8.50;;;1.90;25.30;;;;;;5053167;28;20895;-71
2024/01/21 05:28:40;;;;;;;13.10;7.30;;;1.90;24.90;;;;;;5054065;28;20434;-71
2024/01/21 05:31:06;;;;;;;14.80;8.10;;;1.90;26.00;;;;;;5055224;28;20366;-70
2024/01/21 05:33:32;;;;;;;14.65;8.10;;;1.90;27.10;;;;;;5054626;28;20424;-71
2024/01/21 05:35:57;;;;;;;14.45;7.45;;;1.90;26.20;;;;;;5056638;28;20393;-68
2024/01/21 05:38:23;;;;;;;15.30;7.77;;;1.80;27.50;;;;;;5055528;28;20424;-71
2024/01/21 05:40:48;;;;;;;14.37;8.10;;;1.80;27.10;;;;;;5052951;28;20388;-71
2024/01/21 05:43:14;;;;;;;13.13;7.77;;;1.80;26.60;;;;;;5052601;28;20386;-71
2024/01/21 05:45:40;;;;;;;11.03;6.73;;;1.80;26.90;;;;;;5052782;28;20405;-72
2024/01/21 05:48:06;;;;;;;12.55;6.97;;;1.70;25.50;;;;;;5052646;28;20412;-71
2024/01/21 05:50:32;;;;;;;15.05;7.95;;;1.80;26.70;;;;;;5052108;28;20385;-70
2024/01/21 05:52:58;;;;;;;13.10;7.57;;;1.70;26.60;;;;;;5052672;28;20384;-71
2024/01/21 05:55:23;;;;;;;13.53;8.00;;;1.70;26.90;;;;;;5034720;28;20381;-70
2024/01/21 05:57:49;;;;;;;15.90;8.40;;;1.70;26.40;;;;;;5052599;28;20401;-71
2024/01/21 06:00:15;;;;;;;12.95;7.03;;;1.70;25.70;;;;;;5052407;28;20464;-72
2024/01/21 06:02:41;;;;;;;14.05;7.00;;;1.70;26.10;;;;;;5052068;28;20381;-71
2024/01/21 06:05:07;;;;;;;15.15;7.63;;;1.80;25.30;;;;;;5052088;28;20477;-70
2024/01/21 06:07:32;;;;;;;13.65;7.50;;;1.80;26.30;;;;;;5052183;28;20386;-71
2024/01/21 06:09:58;;;;;;;16.25;7.97;;;1.90;26.40;;;;;;5052027;28;20382;-71
2024/01/21 06:12:24;;;;;;;14.75;7.70;;;1.80;26.70;;;;;;5052009;28;20844;-71
2024/01/21 06:14:49;;;;;;;13.03;7.50;;;1.80;25.90;;;;;;5052284;28;20416;-71
2024/01/21 06:17:15;;;;;;;15.90;7.80;;;1.70;25.10;;;;;;5052255;28;20396;-71
2024/01/21 06:19:40;;;;;;;13.67;7.90;;;1.70;25.30;;;;;;5052120;28;20428;-71
2024/01/21 06:22:06;;;;;;;13.73;7.73;;;1.80;26.10;;;;;;5051559;28;20737;-71
2024/01/21 06:24:37;;;;;;;13.68;8.02;;;1.80;26.30;;;;;;5052662;28;20446;-71
2024/01/21 06:27:03;;;;;;;13.13;7.70;;;1.80;25.60;;;;;;5053858;28;20473;-71
2024/01/21 06:29:29;;;;;;;15.25;7.88;;;1.90;24.70;;;;;;5054015;28;20412;-70
2024/01/21 06:31:55;;;;;;;12.73;7.40;;;1.80;25.90;;;;;;5052092;28;20382;-71
2024/01/21 06:34:21;;;;;;;15.20;8.23;;;1.90;26.50;;;;;;5051415;28;20385;-71
2024/01/21 06:36:46;;;;;;;14.10;7.80;;;1.90;26.20;;;;;;5051715;28;20381;-71
2024/01/21 06:39:12;;;;;;;13.70;8.13;;;2.00;26.60;;;;;;5051610;28;20741;-72
2024/01/21 06:41:38;;;;;;;18.15;8.38;;;2.00;25.30;;;;;;5051527;28;20473;-71
2024/01/21 06:44:03;;;;;;;11.70;7.37;;;2.00;25.50;;;;;;5051237;28;20377;-71
2024/01/21 06:46:29;;;;;;;18.40;8.67;;;2.00;25.70;;;;;;5051208;28;20420;-70
2024/01/21 06:48:55;;;;;;;15.40;8.25;;;2.00;25.90;;;;;;5051532;28;20416;-71
2024/01/21 06:51:37;;;;;;;14.00;8.13;;;2.00;25.50;;;;;;5051207;28;20777;-72
2024/01/21 06:54:03;;;;;;;13.27;8.00;;;2.00;25.90;;;;;;5051092;28;20389;-71
2024/01/21 06:56:29;;;;;;;12.48;7.70;;;2.00;27.20;;;;;;5051306;28;20385;-71
2024/01/21 06:58:54;;;;;;;15.68;8.57;;;1.90;26.50;;;;;;5051477;28;20393;-71
2024/01/21 07:01:20;;;;;;;15.65;8.70;;;2.00;27.20;;;;;;5051489;28;20464;-72
2024/01/21 07:03:46;;;;;;;14.83;8.93;;;2.00;26.80;;;;;;5052554;28;20471;-71
2024/01/21 07:06:11;;;;;;;14.93;8.80;;;2.10;27.60;;;;;;5051115;28;20413;-71
2024/01/21 07:08:38;;;;;;;17.10;8.25;;;2.10;28.30;;;;;;5051123;28;20389;-72
2024/01/21 07:11:10;;;;;;;15.43;8.48;;;2.10;27.50;;;;;;5051014;28;20377;-72
2024/01/21 07:13:36;;;;;;;17.10;9.00;;;2.10;27.10;;;;;;5050887;28;20787;-71
2024/01/21 07:16:04;;;;;;;16.20;8.90;;;2.10;27.70;;;;;;5033507;28;20381;-71
2024/01/21 07:18:30;;;;;;;18.20;8.77;;;2.10;27.30;;;;;;5050927;28;20377;-70
2024/01/21 07:20:55;;;;;;;15.73;8.73;;;2.00;27.40;;;;;;5051019;28;20473;-72
2024/01/21 07:23:21;;;;;;;15.30;9.10;;;2.00;27.70;;;;;;5050969;28;20381;-71
2024/01/21 07:25:48;;;;;;;15.10;9.33;;;2.00;28.70;;;;;;5051107;28;20401;-72
2024/01/21 07:28:13;;;;;;;16.58;8.98;;;2.00;27.50;;;;;;5050976;28;20417;-71
2024/01/21 07:30:39;;;;;;;17.02;9.45;;;2.00;28.40;;;;;;5050510;28;20923;-71
2024/01/21 07:33:04;;;;;;;16.93;9.13;;;2.00;28.40;;;;;;5050111;28;20442;-71
2024/01/21 07:35:31;;;;;;;17.03;9.33;;;2.00;28.30;;;;;;5050977;28;20628;-72
2024/01/21 07:37:56;;;;;;;17.25;9.50;;;1.90;28.00;;;;;;5051102;28;20409;-71
2024/01/21 07:40:22;;;;;;;17.23;9.20;;;2.00;28.70;;;;;;5050826;28;20416;-71
2024/01/21 07:42:48;;;;;;;15.93;9.30;;;2.00;28.20;;;;;;5050641;28;20389;-71
2024/01/21 07:45:13;;;;;;;17.63;10.02;;;1.90;29.00;;;;;;5050749;28;20396;-71
2024/01/21 07:47:39;;;;;;;16.27;9.40;;;2.00;28.60;;;;;;5051189;28;20388;-71
2024/01/21 07:50:05;;;;;;;18.58;10.20;;;2.00;28.70;;;;;;5050983;28;20385;-71
2024/01/21 07:52:30;;;;;;;15.97;9.47;;;2.00;29.10;;;;;;5050873;28;20392;-71
2024/01/21 07:54:56;;;;;;;17.60;9.88;;;2.10;30.20;;;;;;5051126;28;20393;-71
2024/01/21 07:57:22;;;;;;;19.63;9.70;;;2.10;28.70;;;;;;5051116;28;20386;-70
2024/01/21 07:59:47;;;;;;;17.63;9.90;;;2.00;29.00;;;;;;5050978;28;20416;-71
2024/01/21 08:02:13;;;;;;;17.97;9.57;;;2.00;29.00;;;;;;5052500;28;20891;-72
2024/01/21 08:04:38;;;;;;;17.07;10.07;;;2.00;28.80;;;;;;5051418;28;20899;-70
2024/01/21 08:07:04;;;;;;;26.00;10.52;;;2.00;29.70;;;;;;5051314;28;20435;-71
2024/01/21 08:09:30;;;;;;;18.45;10.23;;;2.10;30.30;;;;;;5050756;28;20791;-71
2024/01/21 08:11:55;;;;;;;18.05;10.35;;;2.10;29.00;;;;;;5050312;28;20468;-71
2024/01/21 08:14:21;;;;;;;16.90;10.20;;;2.10;29.20;;;;;;5050577;28;20389;-71
2024/01/21 08:16:47;;;;;;;17.60;9.70;;;2.20;29.40;;;;;;5050633;28;20460;-71
2024/01/21 08:19:15;;;;;;;19.00;9.57;;;2.20;29.70;;;;;;5050426;28;20389;-71
2024/01/21 08:21:40;;;;;;;17.15;9.30;;;2.20;29.20;;;;;;5050673;28;20764;-71
2024/01/21 08:24:06;;;;;;;17.50;10.00;;;2.30;28.40;;;;;;5050400;28;20389;-71
2024/01/21 08:26:31;;;;;;;18.38;9.90;;;2.30;28.10;;;;;;5050265;28;20887;-71
2024/01/21 08:28:58;;;;;;;17.98;10.18;;;2.30;28.80;;;;;;5050237;28;20389;-71
2024/01/21 08:31:23;;;;;;;18.42;9.75;;;2.30;28.40;;;;;;5050269;28;20373;-71
2024/01/21 08:33:49;;;;;;;18.20;10.32;;;2.40;28.60;;;;;;5093570;22;20411;-74
2024/01/21 08:36:14;;;;;;;17.03;9.30;;;2.40;28.60;;;;;;5116518;28;20399;-73
2024/01/21 08:38:40;;;;;;;20.57;10.00;;;2.50;29.30;;;;;;5133542;28;20453;-72
2024/01/21 08:41:05;;;;;;;16.50;9.77;;;2.50;28.80;;;;;;5133825;28;20364;-73
2024/01/21 08:43:31;;;;;;;18.60;10.70;;;2.50;28.90;;;;;;5134612;28;20398;-74
2024/01/21 08:45:56;;;;;;;20.13;10.10;;;2.50;28.50;;;;;;5138121;28;20392;-73
2024/01/21 08:48:22;;;;;;;17.90;10.30;;;2.60;28.30;;;;;;5138440;28;20404;-73
2024/01/21 08:50:47;;;;;;;16.45;9.00;;;2.60;27.60;;;;;;5138101;28;20387;-74
2024/01/21 08:53:13;;;;;;;18.98;10.10;;;2.60;27.30;;;;;;5118590;28;20427;-73
2024/01/21 08:55:39;;;;;;;17.75;10.30;;;2.60;27.50;;;;;;5135528;28;20388;-73
2024/01/21 08:58:04;;;;;;;19.45;10.18;;;2.80;27.80;;;;;;5135608;28;20384;-73
2024/01/21 09:00:30;;;;;;;20.58;10.27;;;2.90;28.00;;;;;;5136107;28;20380;-74
2024/01/21 09:02:55;;;;;;;21.73;10.17;;;3.10;27.20;;;;;;5114152;28;20408;-74
2024/01/21 09:05:21;;;;;;;21.07;9.87;;;3.30;26.10;;;;;;5120537;28;20438;-74
2024/01/21 09:07:46;;;;;;;18.47;10.20;;;3.60;25.70;;;;;;5127834;28;20403;-74
2024/01/21 09:10:12;;;;;;;20.40;10.50;;;3.70;25.70;;;;;;5133380;28;20384;-73
2024/01/21 09:12:38;;;;;;;19.38;10.40;;;3.60;26.30;;;;;;5135125;28;20380;-73
2024/01/21 09:15:06;;;;;;;21.97;10.90;;;3.60;26.50;;;;;;5134782;28;20376;-74
2024/01/21 09:17:32;;;;;;;20.67;10.60;;;3.60;26.60;;;;;;5135720;28;20415;-74
2024/01/21 09:19:59;;;;;;;18.73;9.95;;;3.50;26.60;;;;;;5135957;28;20445;-74
2024/01/21 09:22:24;;;;;;;21.58;10.85;;;3.50;27.10;;;;;;5134474;28;20376;-72
2024/01/21 09:24:50;;;;;;;18.87;10.30;;;3.50;27.70;;;;;;5134982;28;20407;-73
2024/01/21 09:27:15;;;;;;;23.05;10.90;;;3.50;27.20;;;;;;5118215;28;20376;-73
2024/01/21 09:29:42;;;;;;;24.58;11.20;;;3.50;28.00;;;;;;5117780;28;20855;-74
2024/01/21 09:32:07;;;;;;;20.50;10.90;;;3.60;26.60;;;;;;5116356;28;20376;-75
2024/01/21 09:34:33;;;;;;;18.42;10.93;;;3.60;27.90;;;;;;5117983;28;20414;-74
2024/01/21 09:36:59;;;;;;;19.90;11.55;;;3.60;26.90;;;;;;5117501;28;20851;-74
2024/01/21 09:39:25;;;;;;;23.73;10.82;;;3.60;26.60;;;;;;5121794;28;20376;-74
2024/01/21 09:41:52;;;;;;;19.88;11.43;;;3.60;26.90;;;;;;5122702;28;20376;-73
2024/01/21 09:44:25;;;;;;;20.60;11.32;;;3.60;27.60;;;;;;5118833;28;20582;-73
2024/01/21 09:46:58;;;;;;;21.42;10.50;;;3.70;27.70;;;;;;5119763;28;20381;-73
2024/01/21 09:49:24;;;;;;;18.77;11.00;;;3.60;27.20;;;;;;5119161;28;20373;-74
2024/01/21 09:51:52;;;;;;;18.67;10.70;;;3.60;26.20;;;;;;5122485;28;20372;-74
2024/01/21 09:54:19;;;;;;;22.80;11.93;;;3.70;25.80;;;;;;5102689;28;20384;-74
2024/01/21 09:56:45;;;;;;;22.10;11.00;;;3.70;27.40;;;;;;5102216;28;20380;-74
2024/01/21 09:59:11;;;;;;;24.87;12.13;;;3.80;25.80;;;;;;5122854;28;20376;-74
2024/01/21 10:01:39;;;;;;;24.23;11.43;;;4.00;27.30;;;;;;5121528;28;20526;-74
2024/01/21 10:04:05;;;;;;;24.20;12.27;;;4.20;27.10;;;;;;5123378;28;20377;-73
2024/01/21 10:06:32;;;;;;;20.20;11.50;;;4.20;24.60;;;;;;5124297;28;20411;-74
2024/01/21 10:09:21;;;;;;;22.33;11.85;;;4.20;25.10;;;;;;5124794;28;20793;-73
2024/01/21 10:11:53;;;;;;;23.33;12.18;;;4.40;25.10;;;;;;5105080;28;20433;-74
2024/01/21 10:14:20;;;;;;;20.48;11.48;;;4.40;25.20;;;;;;5122690;28;20369;-73
2024/01/21 10:16:46;;;;;;;20.67;11.80;;;4.20;24.80;;;;;;5095324;28;20816;-73
2024/01/21 10:19:14;;;;;;;17.80;10.88;;;4.20;25.10;;;;;;5112884;28;20395;-73
2024/01/21 10:21:40;;;;;;;21.83;12.52;;;4.20;25.70;;;;;;5112775;28;20549;-73
2024/01/21 10:24:10;;;;;;;22.05;12.30;;;4.20;25.80;;;;;;5112345;28;20417;-73
2024/01/21 10:26:37;;;;;;;26.50;13.38;;;4.30;25.50;;;;;;5113791;28;20396;-73
2024/01/21 10:29:03;;;;;;;29.48;14.95;;;4.20;25.70;;;;;;5113144;28;20943;-73
2024/01/21 10:31:28;;;;;;;24.05;12.60;;;4.30;26.20;;;;;;5112411;28;20380;-73
2024/01/21 10:33:54;;;;;;;20.53;12.40;;;4.50;25.90;;;;;;5114059;28;20898;-74
2024/01/21 10:36:21;;;;;;;21.90;12.40;;;4.50;25.60;;;;;;5113392;28;20522;-73
2024/01/21 10:38:51;;;;;;;21.58;12.25;;;4.50;25.40;;;;;;5113619;28;20880;-74
2024/01/21 10:41:31;;;;;;;22.25;11.93;;;4.40;25.80;;;;;;5112943;28;20385;-73
2024/01/21 10:43:58;;;;;;;19.80;11.82;;;4.40;25.90;;;;;;5113895;28;20368;-73
2024/01/21 10:46:25;;;;;;;19.88;12.27;;;4.60;26.00;;;;;;5114155;28;20376;-73
2024/01/21 10:48:55;;;;;;;24.00;11.80;;;4.70;25.30;;;;;;5112560;28;20459;-73
2024/01/21 10:51:22;;;;;;;21.45;12.07;;;4.70;24.90;;;;;;5111561;28;20414;-73
2024/01/21 10:53:51;;;;;;;23.27;11.82;;;4.70;25.00;;;;;;5112271;28;20372;-74
2024/01/21 10:56:19;;;;;;;18.45;11.10;;;4.80;24.70;;;;;;5112501;28;20396;-73
2024/01/21 10:58:49;;;;;;;26.60;12.10;;;4.90;24.70;;;;;;5111979;28;20387;-73
2024/01/21 11:01:16;;;;;;;24.05;12.13;;;4.90;24.50;;;;;;5111728;28;21012;-73
2024/01/21 11:03:43;;;;;;;20.02;11.85;;;4.90;24.40;;;;;;5112028;28;20901;-73
2024/01/21 11:06:10;;;;;;;21.48;12.00;;;4.90;24.00;;;;;;5112219;28;20931;-73
2024/01/21 11:08:37;;;;;;;22.17;12.10;;;5.00;24.60;;;;;;5093610;28;20392;-74
2024/01/21 11:11:08;;;;;;;20.75;11.43;;;4.90;24.30;;;;;;5112532;28;20384;-73
2024/01/21 11:13:41;;;;;;;24.20;12.40;;;4.80;25.60;;;;;;5115823;28;20376;-73
2024/01/21 11:16:09;;;;;;;26.00;11.98;;;4.90;26.30;;;;;;5111582;28;20406;-72
2024/01/21 11:18:35;;;;;;;20.90;11.90;;;4.80;25.50;;;;;;5111286;28;20472;-74
2024/01/21 11:21:01;;;;;;;21.60;11.70;;;4.80;26.10;;;;;;5111546;28;20486;-74
2024/01/21 11:23:27;;;;;;;18.85;11.10;;;4.90;26.20;;;;;;5115247;28;20453;-72
2024/01/21 11:25:53;;;;;;;20.05;11.50;;;4.90;26.20;;;;;;5093394;28;20870;-74
2024/01/21 11:28:27;;;;;;;22.65;11.90;;;4.70;26.40;;;;;;5111628;28;20900;-73
2024/01/21 11:31:00;;;;;;;21.67;11.85;;;4.70;26.90;;;;;;5113001;28;20418;-74
2024/01/21 11:33:25;;;;;;;22.85;12.40;;;4.80;27.80;;;;;;5112620;28;20463;-74
2024/01/21 11:35:53;;;;;;;19.58;12.23;;;4.90;27.30;;;;;;5112343;28;20458;-73
2024/01/21 11:38:19;;;;;;;22.55;12.40;;;5.00;27.80;;;;;;5111265;28;20914;-73
2024/01/21 11:40:45;;;;;;;21.17;12.02;;;4.90;28.10;;;;;;5111032;28;20426;-72
2024/01/21 11:43:10;;;;;;;20.37;12.10;;;4.80;28.90;;;;;;5111343;28;20404;-73
2024/01/21 11:45:38;;;;;;;24.65;12.82;;;4.80;29.20;;;;;;5111433;28;20384;-72
2024/01/21 11:48:09;;;;;;;22.05;11.77;;;4.90;29.80;;;;;;5110905;28;20383;-74
2024/01/21 11:50:35;;;;;;;21.45;12.40;;;4.90;29.60;;;;;;5111049;28;20413;-73
2024/01/21 11:53:01;;;;;;;22.10;12.30;;;4.90;30.00;;;;;;5113291;28;20421;-73
2024/01/21 11:55:27;;;;;;;21.88;12.25;;;5.00;30.20;;;;;;5115187;28;20411;-75
2024/01/21 11:57:53;;;;;;;19.87;12.17;;;5.10;28.90;;;;;;5098294;28;20942;-74
2024/01/21 12:00:18;;;;;;;22.38;12.40;;;5.20;28.70;;;;;;5114490;28;20387;-74
2024/01/21 12:02:45;;;;;;;19.98;11.93;;;5.20;28.20;;;;;;5111361;28;20854;-72
2024/01/21 12:05:11;;;;;;;21.63;12.27;;;5.20;28.10;;;;;;5111490;28;20384;-73
2024/01/21 12:07:37;;;;;;;21.20;12.70;;;5.30;28.00;;;;;;5111295;28;20463;-73
2024/01/21 12:10:03;;;;;;;18.67;11.70;;;5.40;27.60;;;;;;5110707;28;20876;-73
2024/01/21 12:12:29;;;;;;;61.83;32.53;;;5.50;27.40;;;;;;5111032;28;20394;-74
2024/01/21 12:14:55;;;;;;;24.83;12.63;;;5.50;27.90;;;;;;5111186;28;20404;-74
2024/01/21 12:17:21;;;;;;;21.00;12.23;;;5.50;27.40;;;;;;5111391;28;20457;-73
2024/01/21 12:19:47;;;;;;;20.00;11.63;;;5.50;27.60;;;;;;5112757;28;20455;-74
2024/01/21 12:22:14;;;;;;;22.80;12.63;;;5.60;27.80;;;;;;5114849;28;20426;-73
2024/01/21 12:24:40;;;;;;;24.25;11.35;;;5.60;27.70;;;;;;5115417;28;20387;-73
2024/01/21 12:27:06;;;;;;;21.60;11.82;;;5.50;27.60;;;;;;5114765;28;20433;-74
2024/01/21 12:29:38;;;;;;;22.30;13.03;;;5.40;27.50;;;;;;5114812;28;20767;-74
2024/01/21 12:32:06;;;;;;;20.83;11.77;;;5.50;27.90;;;;;;5114377;28;20376;-74
2024/01/21 12:34:33;;;;;;;21.20;12.45;;;5.50;27.70;;;;;;5114408;28;20769;-73
2024/01/21 12:36:58;;;;;;;20.23;11.75;;;5.60;28.30;;;;;;5115026;28;20395;-75